sensor_id;sensor_type;location;lat;lon;timestamp;P1;durP1;ratioP1;P2;durP2;ratioP2
10985;SDS011;5546;48.714;8.738;2023-04-26T00:01:56;7.33;;;5.77;;
10985;SDS011;5546;48.714;8.738;2023-04-26T00:04:23;6.37;;;5.43;;
10985;SDS011;5546;48.714;8.738;2023-04-26T00:06:49;5.30;;;4.63;;
10985;SDS011;5546;48.714;8.738;2023-04-26T00:09:16;6.20;;;5.10;;
10985;SDS011;5546;48.714;8.738;2023-04-26T00:11:46;6.40;;;5.23;;
10985;SDS011;5546;48.714;8.738;2023-04-26T00:14:17;7.40;;;4.80;;
10985;SDS011;5546;48.714;8.738;2023-04-26T00:16:43;7.30;;;5.07;;
10985;SDS011;5546;48.714;8.738;2023-04-26T00:19:08;6.37;;;4.90;;
10985;SDS011;5546;48.714;8.738;2023-04-26T00:21:35;10.37;;;5.50;;
10985;SDS011;5546;48.714;8.738;2023-04-26T00:24:01;8.03;;;5.33;;
10985;SDS011;5546;48.714;8.738;2023-04-26T00:26:30;7.90;;;5.60;;
10985;SDS011;5546;48.714;8.738;2023-04-26T00:28:58;6.20;;;5.50;;
10985;SDS011;5546;48.714;8.738;2023-04-26T00:31:24;8.70;;;5.10;;
10985;SDS011;5546;48.714;8.738;2023-04-26T00:33:50;5.90;;;4.70;;
10985;SDS011;5546;48.714;8.738;2023-04-26T00:36:15;8.37;;;4.90;;
10985;SDS011;5546;48.714;8.738;2023-04-26T00:38:44;6.30;;;5.30;;
10985;SDS011;5546;48.714;8.738;2023-04-26T00:41:10;6.80;;;5.00;;
10985;SDS011;5546;48.714;8.738;2023-04-26T00:43:36;7.67;;;5.80;;
10985;SDS011;5546;48.714;8.738;2023-04-26T00:46:08;6.97;;;5.47;;
10985;SDS011;5546;48.714;8.738;2023-04-26T00:48:35;6.00;;;4.90;;
10985;SDS011;5546;48.714;8.738;2023-04-26T00:51:01;6.83;;;5.37;;
10985;SDS011;5546;48.714;8.738;2023-04-26T00:53:29;10.77;;;6.00;;
10985;SDS011;5546;48.714;8.738;2023-04-26T00:56:10;9.40;;;5.00;;
10985;SDS011;5546;48.714;8.738;2023-04-26T00:58:39;8.50;;;5.73;;
10985;SDS011;5546;48.714;8.738;2023-04-26T01:01:05;5.70;;;5.10;;
10985;SDS011;5546;48.714;8.738;2023-04-26T01:03:31;5.93;;;4.87;;
10985;SDS011;5546;48.714;8.738;2023-04-26T01:06:00;7.70;;;5.20;;
10985;SDS011;5546;48.714;8.738;2023-04-26T01:08:25;6.53;;;5.17;;
10985;SDS011;5546;48.714;8.738;2023-04-26T01:11:12;8.00;;;4.90;;
10985;SDS011;5546;48.714;8.738;2023-04-26T01:13:39;7.00;;;5.27;;
10985;SDS011;5546;48.714;8.738;2023-04-26T01:16:06;7.43;;;5.03;;
10985;SDS011;5546;48.714;8.738;2023-04-26T01:18:33;7.30;;;4.80;;
10985;SDS011;5546;48.714;8.738;2023-04-26T01:20:59;6.97;;;5.07;;
10985;SDS011;5546;48.714;8.738;2023-04-26T01:23:24;6.60;;;5.07;;
10985;SDS011;5546;48.714;8.738;2023-04-26T01:25:50;8.57;;;5.50;;
10985;SDS011;5546;48.714;8.738;2023-04-26T01:28:17;5.63;;;4.80;;
10985;SDS011;5546;48.714;8.738;2023-04-26T01:30:43;7.60;;;5.17;;
10985;SDS011;5546;48.714;8.738;2023-04-26T01:33:15;6.57;;;5.20;;
10985;SDS011;5546;48.714;8.738;2023-04-26T01:35:59;5.43;;;4.87;;
10985;SDS011;5546;48.714;8.738;2023-04-26T01:38:28;10.40;;;5.17;;
10985;SDS011;5546;48.714;8.738;2023-04-26T01:40:56;7.83;;;5.10;;
10985;SDS011;5546;48.714;8.738;2023-04-26T01:43:22;6.87;;;5.20;;
10985;SDS011;5546;48.714;8.738;2023-04-26T01:45:48;7.93;;;4.90;;
10985;SDS011;5546;48.714;8.738;2023-04-26T01:48:14;6.63;;;5.20;;
10985;SDS011;5546;48.714;8.738;2023-04-26T01:50:40;10.90;;;5.57;;
10985;SDS011;5546;48.714;8.738;2023-04-26T01:53:06;8.30;;;5.60;;
10985;SDS011;5546;48.714;8.738;2023-04-26T01:55:32;7.17;;;5.77;;
10985;SDS011;5546;48.714;8.738;2023-04-26T01:57:58;9.33;;;5.80;;
10985;SDS011;5546;48.714;8.738;2023-04-26T02:00:25;8.00;;;5.40;;
10985;SDS011;5546;48.714;8.738;2023-04-26T02:02:55;6.03;;;4.97;;
10985;SDS011;5546;48.714;8.738;2023-04-26T02:05:21;10.20;;;5.30;;
10985;SDS011;5546;48.714;8.738;2023-04-26T02:07:47;8.67;;;5.07;;
10985;SDS011;5546;48.714;8.738;2023-04-26T02:10:13;7.53;;;4.90;;
10985;SDS011;5546;48.714;8.738;2023-04-26T02:12:39;5.47;;;4.87;;
10985;SDS011;5546;48.714;8.738;2023-04-26T02:15:05;8.80;;;4.90;;
10985;SDS011;5546;48.714;8.738;2023-04-26T02:17:32;6.03;;;4.80;;
10985;SDS011;5546;48.714;8.738;2023-04-26T02:19:58;6.07;;;4.87;;
10985;SDS011;5546;48.714;8.738;2023-04-26T02:22:24;8.73;;;5.17;;
10985;SDS011;5546;48.714;8.738;2023-04-26T02:24:50;10.10;;;4.70;;
10985;SDS011;5546;48.714;8.738;2023-04-26T02:27:17;6.73;;;4.30;;
10985;SDS011;5546;48.714;8.738;2023-04-26T02:29:43;6.03;;;4.40;;
10985;SDS011;5546;48.714;8.738;2023-04-26T02:32:10;6.37;;;4.37;;
10985;SDS011;5546;48.714;8.738;2023-04-26T02:34:35;8.63;;;4.10;;
10985;SDS011;5546;48.714;8.738;2023-04-26T02:37:01;7.80;;;4.73;;
10985;SDS011;5546;48.714;8.738;2023-04-26T02:39:28;8.77;;;4.20;;
10985;SDS011;5546;48.714;8.738;2023-04-26T02:41:54;7.30;;;5.03;;
10985;SDS011;5546;48.714;8.738;2023-04-26T02:44:19;7.70;;;4.50;;
10985;SDS011;5546;48.714;8.738;2023-04-26T02:46:45;5.53;;;4.30;;
10985;SDS011;5546;48.714;8.738;2023-04-26T02:49:11;5.47;;;3.70;;
10985;SDS011;5546;48.714;8.738;2023-04-26T02:51:36;7.80;;;4.63;;
10985;SDS011;5546;48.714;8.738;2023-04-26T02:54:02;6.63;;;4.17;;
10985;SDS011;5546;48.714;8.738;2023-04-26T02:56:28;8.83;;;5.10;;
10985;SDS011;5546;48.714;8.738;2023-04-26T02:58:54;7.47;;;4.43;;
10985;SDS011;5546;48.714;8.738;2023-04-26T03:01:20;7.80;;;5.13;;
10985;SDS011;5546;48.714;8.738;2023-04-26T03:03:46;6.07;;;4.50;;
10985;SDS011;5546;48.714;8.738;2023-04-26T03:06:12;8.53;;;4.87;;
10985;SDS011;5546;48.714;8.738;2023-04-26T03:08:38;9.10;;;4.90;;
10985;SDS011;5546;48.714;8.738;2023-04-26T03:11:04;10.93;;;5.60;;
10985;SDS011;5546;48.714;8.738;2023-04-26T03:13:29;7.77;;;5.87;;
10985;SDS011;5546;48.714;8.738;2023-04-26T03:15:55;11.30;;;5.97;;
10985;SDS011;5546;48.714;8.738;2023-04-26T03:18:21;10.13;;;5.73;;
10985;SDS011;5546;48.714;8.738;2023-04-26T03:20:47;8.47;;;5.47;;
10985;SDS011;5546;48.714;8.738;2023-04-26T03:23:13;8.80;;;4.90;;
10985;SDS011;5546;48.714;8.738;2023-04-26T03:25:38;11.00;;;6.20;;
10985;SDS011;5546;48.714;8.738;2023-04-26T03:28:04;7.03;;;5.27;;
10985;SDS011;5546;48.714;8.738;2023-04-26T03:30:30;8.37;;;5.57;;
10985;SDS011;5546;48.714;8.738;2023-04-26T03:32:56;10.13;;;5.13;;
10985;SDS011;5546;48.714;8.738;2023-04-26T03:35:22;11.67;;;6.10;;
10985;SDS011;5546;48.714;8.738;2023-04-26T03:37:47;9.57;;;5.43;;
10985;SDS011;5546;48.714;8.738;2023-04-26T03:40:13;7.40;;;5.77;;
10985;SDS011;5546;48.714;8.738;2023-04-26T03:42:39;9.70;;;5.53;;
10985;SDS011;5546;48.714;8.738;2023-04-26T03:45:05;9.73;;;7.13;;
10985;SDS011;5546;48.714;8.738;2023-04-26T03:47:31;18.93;;;12.80;;
10985;SDS011;5546;48.714;8.738;2023-04-26T03:49:56;9.17;;;5.70;;
10985;SDS011;5546;48.714;8.738;2023-04-26T03:52:22;9.83;;;5.23;;
10985;SDS011;5546;48.714;8.738;2023-04-26T03:54:48;8.13;;;6.40;;
10985;SDS011;5546;48.714;8.738;2023-04-26T03:57:14;10.57;;;5.47;;
10985;SDS011;5546;48.714;8.738;2023-04-26T03:59:40;10.67;;;5.67;;
10985;SDS011;5546;48.714;8.738;2023-04-26T04:02:06;12.90;;;5.93;;
10985;SDS011;5546;48.714;8.738;2023-04-26T04:04:32;11.70;;;7.07;;
10985;SDS011;5546;48.714;8.738;2023-04-26T04:06:58;9.57;;;7.23;;
10985;SDS011;5546;48.714;8.738;2023-04-26T04:09:23;11.20;;;7.73;;
10985;SDS011;5546;48.714;8.738;2023-04-26T04:11:49;11.70;;;7.23;;
10985;SDS011;5546;48.714;8.738;2023-04-26T04:14:16;8.50;;;6.70;;
10985;SDS011;5546;48.714;8.738;2023-04-26T04:16:41;10.00;;;6.00;;
10985;SDS011;5546;48.714;8.738;2023-04-26T04:19:07;10.20;;;5.87;;
10985;SDS011;5546;48.714;8.738;2023-04-26T04:21:33;7.97;;;5.43;;
10985;SDS011;5546;48.714;8.738;2023-04-26T04:23:59;10.37;;;6.67;;
10985;SDS011;5546;48.714;8.738;2023-04-26T04:26:24;9.63;;;6.53;;
10985;SDS011;5546;48.714;8.738;2023-04-26T04:28:51;9.27;;;5.97;;
10985;SDS011;5546;48.714;8.738;2023-04-26T04:31:19;14.17;;;7.30;;
10985;SDS011;5546;48.714;8.738;2023-04-26T04:33:45;7.47;;;5.63;;
10985;SDS011;5546;48.714;8.738;2023-04-26T04:36:11;10.13;;;5.43;;
10985;SDS011;5546;48.714;8.738;2023-04-26T04:38:37;6.20;;;5.30;;
10985;SDS011;5546;48.714;8.738;2023-04-26T04:41:03;6.07;;;4.73;;
10985;SDS011;5546;48.714;8.738;2023-04-26T04:43:29;4.93;;;4.30;;
10985;SDS011;5546;48.714;8.738;2023-04-26T04:45:55;7.10;;;4.90;;
10985;SDS011;5546;48.714;8.738;2023-04-26T04:48:20;5.93;;;4.77;;
10985;SDS011;5546;48.714;8.738;2023-04-26T04:50:47;6.20;;;5.00;;
10985;SDS011;5546;48.714;8.738;2023-04-26T04:53:13;6.40;;;4.60;;
10985;SDS011;5546;48.714;8.738;2023-04-26T04:55:38;7.03;;;4.70;;
10985;SDS011;5546;48.714;8.738;2023-04-26T04:58:05;6.73;;;4.33;;
10985;SDS011;5546;48.714;8.738;2023-04-26T05:00:31;7.40;;;5.50;;
10985;SDS011;5546;48.714;8.738;2023-04-26T05:02:56;10.43;;;6.07;;
10985;SDS011;5546;48.714;8.738;2023-04-26T05:05:22;10.90;;;6.70;;
10985;SDS011;5546;48.714;8.738;2023-04-26T05:07:48;8.83;;;5.97;;
10985;SDS011;5546;48.714;8.738;2023-04-26T05:10:14;9.67;;;5.87;;
10985;SDS011;5546;48.714;8.738;2023-04-26T05:12:40;10.37;;;7.10;;
10985;SDS011;5546;48.714;8.738;2023-04-26T05:15:06;8.47;;;6.33;;
10985;SDS011;5546;48.714;8.738;2023-04-26T05:17:33;7.37;;;6.00;;
10985;SDS011;5546;48.714;8.738;2023-04-26T05:19:58;6.87;;;6.10;;
10985;SDS011;5546;48.714;8.738;2023-04-26T05:22:27;7.07;;;6.23;;
10985;SDS011;5546;48.714;8.738;2023-04-26T05:24:53;7.37;;;6.00;;
10985;SDS011;5546;48.714;8.738;2023-04-26T05:27:18;7.77;;;6.47;;
10985;SDS011;5546;48.714;8.738;2023-04-26T05:29:44;8.13;;;5.97;;
10985;SDS011;5546;48.714;8.738;2023-04-26T05:32:10;7.17;;;5.90;;
10985;SDS011;5546;48.714;8.738;2023-04-26T05:34:36;7.83;;;6.00;;
10985;SDS011;5546;48.714;8.738;2023-04-26T05:37:02;9.20;;;5.80;;
10985;SDS011;5546;48.714;8.738;2023-04-26T05:39:28;7.07;;;6.17;;
10985;SDS011;5546;48.714;8.738;2023-04-26T05:41:55;9.07;;;6.87;;
10985;SDS011;5546;48.714;8.738;2023-04-26T05:44:21;10.80;;;6.13;;
10985;SDS011;5546;48.714;8.738;2023-04-26T05:46:47;8.63;;;6.03;;
10985;SDS011;5546;48.714;8.738;2023-04-26T05:49:12;9.17;;;6.30;;
10985;SDS011;5546;48.714;8.738;2023-04-26T05:51:38;6.97;;;5.30;;
10985;SDS011;5546;48.714;8.738;2023-04-26T05:54:05;8.23;;;5.63;;
10985;SDS011;5546;48.714;8.738;2023-04-26T05:56:30;7.93;;;5.63;;
10985;SDS011;5546;48.714;8.738;2023-04-26T05:58:56;6.20;;;5.30;;
10985;SDS011;5546;48.714;8.738;2023-04-26T06:01:22;8.23;;;6.00;;
10985;SDS011;5546;48.714;8.738;2023-04-26T06:03:48;6.90;;;5.50;;
10985;SDS011;5546;48.714;8.738;2023-04-26T06:06:14;6.97;;;5.50;;
10985;SDS011;5546;48.714;8.738;2023-04-26T06:08:41;6.00;;;4.97;;
10985;SDS011;5546;48.714;8.738;2023-04-26T06:11:07;7.13;;;4.63;;
10985;SDS011;5546;48.714;8.738;2023-04-26T06:13:33;5.13;;;4.63;;
10985;SDS011;5546;48.714;8.738;2023-04-26T06:15:59;4.50;;;4.00;;
10985;SDS011;5546;48.714;8.738;2023-04-26T06:18:25;4.70;;;4.20;;
10985;SDS011;5546;48.714;8.738;2023-04-26T06:20:50;4.33;;;3.93;;
10985;SDS011;5546;48.714;8.738;2023-04-26T06:23:16;4.97;;;3.63;;
10985;SDS011;5546;48.714;8.738;2023-04-26T06:25:41;5.67;;;3.77;;
10985;SDS011;5546;48.714;8.738;2023-04-26T06:28:10;4.97;;;3.90;;
10985;SDS011;5546;48.714;8.738;2023-04-26T06:30:36;6.03;;;4.00;;
10985;SDS011;5546;48.714;8.738;2023-04-26T06:33:02;5.87;;;4.23;;
10985;SDS011;5546;48.714;8.738;2023-04-26T06:35:27;5.63;;;4.40;;
10985;SDS011;5546;48.714;8.738;2023-04-26T06:37:53;5.83;;;4.43;;
10985;SDS011;5546;48.714;8.738;2023-04-26T06:40:18;6.43;;;4.70;;
10985;SDS011;5546;48.714;8.738;2023-04-26T06:42:44;6.25;;;4.15;;
10985;SDS011;5546;48.714;8.738;2023-04-26T06:45:10;6.97;;;4.43;;
10985;SDS011;5546;48.714;8.738;2023-04-26T06:47:36;7.63;;;4.77;;
10985;SDS011;5546;48.714;8.738;2023-04-26T06:50:02;6.90;;;4.40;;
10985;SDS011;5546;48.714;8.738;2023-04-26T06:52:28;6.68;;;5.32;;
10985;SDS011;5546;48.714;8.738;2023-04-26T06:54:54;7.20;;;5.03;;
10985;SDS011;5546;48.714;8.738;2023-04-26T06:57:20;6.95;;;5.13;;
10985;SDS011;5546;48.714;8.738;2023-04-26T06:59:45;6.70;;;5.25;;
10985;SDS011;5546;48.714;8.738;2023-04-26T07:02:11;8.60;;;5.47;;
10985;SDS011;5546;48.714;8.738;2023-04-26T07:04:36;9.43;;;5.32;;
10985;SDS011;5546;48.714;8.738;2023-04-26T07:07:02;6.57;;;4.70;;
10985;SDS011;5546;48.714;8.738;2023-04-26T07:09:27;6.15;;;4.38;;
10985;SDS011;5546;48.714;8.738;2023-04-26T07:11:53;6.97;;;5.15;;
10985;SDS011;5546;48.714;8.738;2023-04-26T07:14:18;6.28;;;4.55;;
10985;SDS011;5546;48.714;8.738;2023-04-26T07:16:44;6.93;;;4.57;;
10985;SDS011;5546;48.714;8.738;2023-04-26T07:19:10;6.90;;;4.43;;
10985;SDS011;5546;48.714;8.738;2023-04-26T07:21:35;6.57;;;3.90;;
10985;SDS011;5546;48.714;8.738;2023-04-26T07:24:01;6.40;;;4.60;;
10985;SDS011;5546;48.714;8.738;2023-04-26T07:26:27;7.63;;;4.65;;
10985;SDS011;5546;48.714;8.738;2023-04-26T07:28:52;9.98;;;4.90;;
10985;SDS011;5546;48.714;8.738;2023-04-26T07:31:18;11.60;;;4.50;;
10985;SDS011;5546;48.714;8.738;2023-04-26T07:33:44;7.15;;;4.78;;
10985;SDS011;5546;48.714;8.738;2023-04-26T07:36:10;9.98;;;4.85;;
10985;SDS011;5546;48.714;8.738;2023-04-26T07:38:36;7.20;;;4.78;;
10985;SDS011;5546;48.714;8.738;2023-04-26T07:41:01;8.13;;;4.70;;
10985;SDS011;5546;48.714;8.738;2023-04-26T07:43:27;6.22;;;4.43;;
10985;SDS011;5546;48.714;8.738;2023-04-26T07:45:54;9.43;;;4.90;;
10985;SDS011;5546;48.714;8.738;2023-04-26T07:48:22;7.47;;;4.45;;
10985;SDS011;5546;48.714;8.738;2023-04-26T07:50:48;7.53;;;4.82;;
10985;SDS011;5546;48.714;8.738;2023-04-26T07:53:13;8.60;;;5.05;;
10985;SDS011;5546;48.714;8.738;2023-04-26T07:55:39;12.40;;;4.50;;
10985;SDS011;5546;48.714;8.738;2023-04-26T07:58:04;5.82;;;4.28;;
10985;SDS011;5546;48.714;8.738;2023-04-26T08:00:30;7.28;;;4.90;;
10985;SDS011;5546;48.714;8.738;2023-04-26T08:02:55;8.18;;;4.13;;
10985;SDS011;5546;48.714;8.738;2023-04-26T08:05:21;7.80;;;4.32;;
10985;SDS011;5546;48.714;8.738;2023-04-26T08:07:46;7.75;;;4.75;;
10985;SDS011;5546;48.714;8.738;2023-04-26T08:10:12;8.60;;;4.40;;
10985;SDS011;5546;48.714;8.738;2023-04-26T08:12:38;8.20;;;4.67;;
10985;SDS011;5546;48.714;8.738;2023-04-26T08:15:04;10.20;;;4.53;;
10985;SDS011;5546;48.714;8.738;2023-04-26T08:17:30;9.97;;;5.17;;
10985;SDS011;5546;48.714;8.738;2023-04-26T08:19:56;9.00;;;4.30;;
10985;SDS011;5546;48.714;8.738;2023-04-26T08:22:22;6.17;;;4.63;;
10985;SDS011;5546;48.714;8.738;2023-04-26T08:24:53;9.23;;;4.30;;
10985;SDS011;5546;48.714;8.738;2023-04-26T08:27:19;6.63;;;3.87;;
10985;SDS011;5546;48.714;8.738;2023-04-26T08:29:45;8.40;;;4.20;;
10985;SDS011;5546;48.714;8.738;2023-04-26T08:32:12;7.53;;;4.20;;
10985;SDS011;5546;48.714;8.738;2023-04-26T08:34:37;8.03;;;4.37;;
10985;SDS011;5546;48.714;8.738;2023-04-26T08:37:03;8.70;;;4.30;;
10985;SDS011;5546;48.714;8.738;2023-04-26T08:39:29;7.50;;;4.40;;
10985;SDS011;5546;48.714;8.738;2023-04-26T08:41:55;7.27;;;4.23;;
10985;SDS011;5546;48.714;8.738;2023-04-26T08:44:28;8.30;;;3.90;;
10985;SDS011;5546;48.714;8.738;2023-04-26T08:50:12;6.63;;;3.37;;
10985;SDS011;5546;48.714;8.738;2023-04-26T08:52:39;6.03;;;3.93;;
10985;SDS011;5546;48.714;8.738;2023-04-26T08:55:06;7.03;;;3.80;;
10985;SDS011;5546;48.714;8.738;2023-04-26T08:57:36;5.85;;;3.28;;
10985;SDS011;5546;48.714;8.738;2023-04-26T09:00:04;6.20;;;3.55;;
10985;SDS011;5546;48.714;8.738;2023-04-26T09:02:34;4.15;;;3.50;;
10985;SDS011;5546;48.714;8.738;2023-04-26T09:05:00;6.97;;;4.03;;
10985;SDS011;5546;48.714;8.738;2023-04-26T09:07:29;6.13;;;3.47;;
10985;SDS011;5546;48.714;8.738;2023-04-26T09:09:57;7.97;;;4.38;;
10985;SDS011;5546;48.714;8.738;2023-04-26T09:12:23;7.90;;;4.20;;
10985;SDS011;5546;48.714;8.738;2023-04-26T09:14:49;7.27;;;4.30;;
10985;SDS011;5546;48.714;8.738;2023-04-26T09:19:54;5.90;;;3.90;;
10985;SDS011;5546;48.714;8.738;2023-04-26T09:22:30;9.80;;;3.80;;
10985;SDS011;5546;48.714;8.738;2023-04-26T09:24:57;8.70;;;4.03;;
10985;SDS011;5546;48.714;8.738;2023-04-26T09:27:30;8.33;;;3.67;;
10985;SDS011;5546;48.714;8.738;2023-04-26T09:30:08;5.27;;;4.00;;
10985;SDS011;5546;48.714;8.738;2023-04-26T09:32:42;8.47;;;3.80;;
10985;SDS011;5546;48.714;8.738;2023-04-26T09:38:05;7.27;;;3.80;;
10985;SDS011;5546;48.714;8.738;2023-04-26T09:40:37;10.63;;;3.80;;
10985;SDS011;5546;48.714;8.738;2023-04-26T09:43:11;6.47;;;3.60;;
10985;SDS011;5546;48.714;8.738;2023-04-26T09:48:20;7.33;;;3.53;;
10985;SDS011;5546;48.714;8.738;2023-04-26T09:50:54;5.13;;;3.70;;
10985;SDS011;5546;48.714;8.738;2023-04-26T09:54:03;7.50;;;3.70;;
10985;SDS011;5546;48.714;8.738;2023-04-26T09:56:14;7.83;;;3.23;;
10985;SDS011;5546;48.714;8.738;2023-04-26T10:01:08;6.17;;;3.07;;
10985;SDS011;5546;48.714;8.738;2023-04-26T10:03:35;6.37;;;3.43;;
10985;SDS011;5546;48.714;8.738;2023-04-26T10:06:02;6.63;;;3.27;;
10985;SDS011;5546;48.714;8.738;2023-04-26T10:08:29;6.20;;;3.10;;
10985;SDS011;5546;48.714;8.738;2023-04-26T10:10:56;7.00;;;2.77;;
10985;SDS011;5546;48.714;8.738;2023-04-26T10:13:23;7.00;;;4.20;;
10985;SDS011;5546;48.714;8.738;2023-04-26T10:15:49;6.13;;;3.40;;
10985;SDS011;5546;48.714;8.738;2023-04-26T10:18:17;5.77;;;2.87;;
10985;SDS011;5546;48.714;8.738;2023-04-26T10:20:43;9.27;;;3.70;;
10985;SDS011;5546;48.714;8.738;2023-04-26T10:23:18;6.60;;;2.90;;
10985;SDS011;5546;48.714;8.738;2023-04-26T10:25:46;5.37;;;2.70;;
10985;SDS011;5546;48.714;8.738;2023-04-26T10:28:12;5.20;;;2.60;;
10985;SDS011;5546;48.714;8.738;2023-04-26T10:30:54;3.47;;;2.80;;
10985;SDS011;5546;48.714;8.738;2023-04-26T10:33:21;9.50;;;4.83;;
10985;SDS011;5546;48.714;8.738;2023-04-26T10:36:00;8.13;;;4.20;;
10985;SDS011;5546;48.714;8.738;2023-04-26T10:38:29;3.20;;;2.80;;
10985;SDS011;5546;48.714;8.738;2023-04-26T10:40:55;6.13;;;2.60;;
10985;SDS011;5546;48.714;8.738;2023-04-26T10:44:35;4.87;;;2.57;;
10985;SDS011;5546;48.714;8.738;2023-04-26T10:47:04;5.28;;;2.65;;
10985;SDS011;5546;48.714;8.738;2023-04-26T10:49:33;4.32;;;2.70;;
10985;SDS011;5546;48.714;8.738;2023-04-26T10:52:19;6.57;;;3.10;;
10985;SDS011;5546;48.714;8.738;2023-04-26T10:54:53;7.55;;;3.00;;
10985;SDS011;5546;48.714;8.738;2023-04-26T10:57:20;8.00;;;6.07;;
10985;SDS011;5546;48.714;8.738;2023-04-26T11:02:51;6.63;;;2.97;;
10985;SDS011;5546;48.714;8.738;2023-04-26T11:08:29;5.73;;;2.70;;
10985;SDS011;5546;48.714;8.738;2023-04-26T11:10:57;6.37;;;2.57;;
10985;SDS011;5546;48.714;8.738;2023-04-26T11:13:29;5.03;;;3.00;;
10985;SDS011;5546;48.714;8.738;2023-04-26T11:15:59;3.50;;;2.30;;
10985;SDS011;5546;48.714;8.738;2023-04-26T11:18:28;6.17;;;2.80;;
10985;SDS011;5546;48.714;8.738;2023-04-26T11:20:54;9.60;;;2.90;;
10985;SDS011;5546;48.714;8.738;2023-04-26T11:23:21;5.37;;;3.00;;
10985;SDS011;5546;48.714;8.738;2023-04-26T11:25:47;5.43;;;3.40;;
10985;SDS011;5546;48.714;8.738;2023-04-26T11:28:13;6.17;;;3.20;;
10985;SDS011;5546;48.714;8.738;2023-04-26T11:30:39;8.07;;;3.60;;
10985;SDS011;5546;48.714;8.738;2023-04-26T11:33:05;5.63;;;2.40;;
10985;SDS011;5546;48.714;8.738;2023-04-26T11:35:34;7.63;;;3.00;;
10985;SDS011;5546;48.714;8.738;2023-04-26T11:38:02;3.93;;;2.13;;
10985;SDS011;5546;48.714;8.738;2023-04-26T11:40:32;6.50;;;2.40;;
10985;SDS011;5546;48.714;8.738;2023-04-26T11:43:00;8.80;;;2.60;;
10985;SDS011;5546;48.714;8.738;2023-04-26T11:45:30;5.90;;;2.47;;
10985;SDS011;5546;48.714;8.738;2023-04-26T11:48:03;4.57;;;2.45;;
10985;SDS011;5546;48.714;8.738;2023-04-26T11:50:30;4.35;;;2.30;;
10985;SDS011;5546;48.714;8.738;2023-04-26T11:52:58;4.03;;;2.60;;
10985;SDS011;5546;48.714;8.738;2023-04-26T11:55:28;4.18;;;2.13;;
10985;SDS011;5546;48.714;8.738;2023-04-26T11:57:57;4.82;;;2.28;;
10985;SDS011;5546;48.714;8.738;2023-04-26T12:00:23;3.47;;;2.30;;
10985;SDS011;5546;48.714;8.738;2023-04-26T12:02:49;5.78;;;2.80;;
10985;SDS011;5546;48.714;8.738;2023-04-26T12:05:20;3.58;;;2.80;;
10985;SDS011;5546;48.714;8.738;2023-04-26T12:07:48;4.47;;;2.45;;
10985;SDS011;5546;48.714;8.738;2023-04-26T12:10:16;5.55;;;2.58;;
10985;SDS011;5546;48.714;8.738;2023-04-26T12:12:43;9.88;;;2.95;;
10985;SDS011;5546;48.714;8.738;2023-04-26T12:15:13;5.63;;;2.83;;
10985;SDS011;5546;48.714;8.738;2023-04-26T12:17:39;5.93;;;2.53;;
10985;SDS011;5546;48.714;8.738;2023-04-26T12:20:09;6.68;;;2.40;;
10985;SDS011;5546;48.714;8.738;2023-04-26T12:22:35;3.40;;;2.35;;
10985;SDS011;5546;48.714;8.738;2023-04-26T12:25:04;3.90;;;2.30;;
10985;SDS011;5546;48.714;8.738;2023-04-26T12:27:30;2.88;;;2.00;;
10985;SDS011;5546;48.714;8.738;2023-04-26T12:29:56;2.75;;;1.65;;
10985;SDS011;5546;48.714;8.738;2023-04-26T12:32:22;2.75;;;2.20;;
10985;SDS011;5546;48.714;8.738;2023-04-26T12:34:47;6.22;;;2.80;;
10985;SDS011;5546;48.714;8.738;2023-04-26T12:37:13;4.53;;;2.30;;
10985;SDS011;5546;48.714;8.738;2023-04-26T12:39:39;3.78;;;2.50;;
10985;SDS011;5546;48.714;8.738;2023-04-26T12:42:04;3.28;;;2.10;;
10985;SDS011;5546;48.714;8.738;2023-04-26T12:44:30;5.38;;;2.47;;
10985;SDS011;5546;48.714;8.738;2023-04-26T12:46:56;5.68;;;2.20;;
10985;SDS011;5546;48.714;8.738;2023-04-26T12:49:21;4.28;;;2.38;;
10985;SDS011;5546;48.714;8.738;2023-04-26T12:51:47;4.25;;;2.20;;
10985;SDS011;5546;48.714;8.738;2023-04-26T12:54:12;7.22;;;2.63;;
10985;SDS011;5546;48.714;8.738;2023-04-26T12:56:38;2.67;;;2.20;;
10985;SDS011;5546;48.714;8.738;2023-04-26T12:59:07;4.75;;;2.53;;
10985;SDS011;5546;48.714;8.738;2023-04-26T13:01:33;3.58;;;2.03;;
10985;SDS011;5546;48.714;8.738;2023-04-26T13:03:59;5.93;;;2.20;;
10985;SDS011;5546;48.714;8.738;2023-04-26T13:06:25;4.28;;;2.30;;
10985;SDS011;5546;48.714;8.738;2023-04-26T13:08:52;3.45;;;2.25;;
10985;SDS011;5546;48.714;8.738;2023-04-26T13:11:18;2.78;;;2.22;;
10985;SDS011;5546;48.714;8.738;2023-04-26T13:13:43;3.80;;;2.08;;
10985;SDS011;5546;48.714;8.738;2023-04-26T13:16:09;5.63;;;2.20;;
10985;SDS011;5546;48.714;8.738;2023-04-26T13:18:35;3.30;;;2.15;;
10985;SDS011;5546;48.714;8.738;2023-04-26T13:21:01;4.30;;;2.28;;
10985;SDS011;5546;48.714;8.738;2023-04-26T13:23:26;4.50;;;2.40;;
10985;SDS011;5546;48.714;8.738;2023-04-26T13:25:52;3.22;;;2.25;;
10985;SDS011;5546;48.714;8.738;2023-04-26T13:28:17;2.38;;;2.10;;
10985;SDS011;5546;48.714;8.738;2023-04-26T13:30:43;3.92;;;2.03;;
10985;SDS011;5546;48.714;8.738;2023-04-26T13:33:08;3.17;;;2.13;;
10985;SDS011;5546;48.714;8.738;2023-04-26T13:35:34;4.35;;;2.25;;
10985;SDS011;5546;48.714;8.738;2023-04-26T13:38:00;3.65;;;1.98;;
10985;SDS011;5546;48.714;8.738;2023-04-26T13:40:25;4.80;;;2.10;;
10985;SDS011;5546;48.714;8.738;2023-04-26T13:42:51;2.28;;;2.08;;
10985;SDS011;5546;48.714;8.738;2023-04-26T13:45:16;2.92;;;2.00;;
10985;SDS011;5546;48.714;8.738;2023-04-26T13:47:42;3.92;;;2.10;;
10985;SDS011;5546;48.714;8.738;2023-04-26T13:50:07;3.05;;;1.80;;
10985;SDS011;5546;48.714;8.738;2023-04-26T13:52:33;3.30;;;2.08;;
10985;SDS011;5546;48.714;8.738;2023-04-26T13:54:59;4.05;;;2.10;;
10985;SDS011;5546;48.714;8.738;2023-04-26T13:57:25;4.82;;;2.30;;
10985;SDS011;5546;48.714;8.738;2023-04-26T13:59:50;5.93;;;2.50;;
10985;SDS011;5546;48.714;8.738;2023-04-26T14:02:16;3.83;;;2.50;;
10985;SDS011;5546;48.714;8.738;2023-04-26T14:04:41;6.00;;;2.45;;
10985;SDS011;5546;48.714;8.738;2023-04-26T14:07:09;4.45;;;2.65;;
10985;SDS011;5546;48.714;8.738;2023-04-26T14:09:35;3.83;;;2.13;;
10985;SDS011;5546;48.714;8.738;2023-04-26T14:12:00;3.27;;;2.10;;
10985;SDS011;5546;48.714;8.738;2023-04-26T14:14:26;2.60;;;1.90;;
10985;SDS011;5546;48.714;8.738;2023-04-26T14:16:51;4.93;;;2.13;;
10985;SDS011;5546;48.714;8.738;2023-04-26T14:19:17;4.80;;;2.03;;
10985;SDS011;5546;48.714;8.738;2023-04-26T14:21:43;3.25;;;2.33;;
10985;SDS011;5546;48.714;8.738;2023-04-26T14:24:08;3.07;;;2.00;;
10985;SDS011;5546;48.714;8.738;2023-04-26T14:26:35;3.23;;;1.70;;
10985;SDS011;5546;48.714;8.738;2023-04-26T14:29:00;2.70;;;2.00;;
10985;SDS011;5546;48.714;8.738;2023-04-26T14:31:26;4.20;;;2.10;;
10985;SDS011;5546;48.714;8.738;2023-04-26T14:33:53;2.80;;;1.83;;
10985;SDS011;5546;48.714;8.738;2023-04-26T14:36:18;5.27;;;2.27;;
10985;SDS011;5546;48.714;8.738;2023-04-26T14:38:45;4.73;;;2.17;;
10985;SDS011;5546;48.714;8.738;2023-04-26T14:41:17;2.93;;;1.67;;
10985;SDS011;5546;48.714;8.738;2023-04-26T14:43:43;2.70;;;1.63;;
10985;SDS011;5546;48.714;8.738;2023-04-26T14:46:13;4.63;;;2.27;;
10985;SDS011;5546;48.714;8.738;2023-04-26T14:48:38;8.73;;;2.20;;
10985;SDS011;5546;48.714;8.738;2023-04-26T14:51:04;5.60;;;2.53;;
10985;SDS011;5546;48.714;8.738;2023-04-26T14:53:30;4.27;;;2.00;;
10985;SDS011;5546;48.714;8.738;2023-04-26T14:55:56;4.60;;;2.10;;
10985;SDS011;5546;48.714;8.738;2023-04-26T14:58:22;3.67;;;1.90;;
10985;SDS011;5546;48.714;8.738;2023-04-26T15:00:49;5.30;;;2.03;;
10985;SDS011;5546;48.714;8.738;2023-04-26T15:03:15;3.70;;;1.80;;
10985;SDS011;5546;48.714;8.738;2023-04-26T15:05:41;3.43;;;2.23;;
10985;SDS011;5546;48.714;8.738;2023-04-26T15:08:06;5.20;;;2.47;;
10985;SDS011;5546;48.714;8.738;2023-04-26T15:10:32;2.90;;;1.90;;
10985;SDS011;5546;48.714;8.738;2023-04-26T15:12:58;3.87;;;2.00;;
10985;SDS011;5546;48.714;8.738;2023-04-26T15:15:23;4.10;;;2.20;;
10985;SDS011;5546;48.714;8.738;2023-04-26T15:17:49;2.80;;;1.90;;
10985;SDS011;5546;48.714;8.738;2023-04-26T15:20:15;2.37;;;2.10;;